Time;durP1;ratioP1;P1;durP2;ratioP2;P2;SDS_P1;SDS_P2;PMS_P1;PMS_P2;Temp;Humidity;BMP_temperature;BMP_pressure;BME280_temperature;BME280_humidity;BME280_pressure;Samples;Min_cycle;Max_cycle;Signal;HPM_P1;HPM_P2
2023/03/08 00:00:13;;;;;;;4.10;2.85;;;;;;;;;;5034094;28;20363;-61
2023/03/08 00:02:39;;;;;;;3.40;2.40;;;;;;;;;;5034197;28;20120;-61
2023/03/08 00:05:05;;;;;;;3.10;2.42;;;;;;;;;;5033819;28;20026;-61
2023/03/08 00:07:31;;;;;;;3.78;2.80;;;;;;;;;;5033788;28;20049;-62
2023/03/08 00:09:57;;;;;;;3.85;2.42;;;;;;;;;;5033239;28;20033;-61
2023/03/08 00:12:23;;;;;;;2.95;2.30;;;;;;;;;;5034267;28;20036;-61
2023/03/08 00:14:50;;;;;;;3.50;2.85;;;;;;;;;;5033940;28;20048;-60
2023/03/08 00:17:16;;;;;;;3.92;2.53;;;;;;;;;;5041999;28;20021;-60
2023/03/08 00:19:42;;;;;;;3.80;2.85;;;;;;;;;;5053938;28;20048;-60
2023/03/08 00:22:08;;;;;;;3.22;2.30;;;;;;;;;;5039368;28;20021;-60
2023/03/08 00:24:34;;;;;;;4.38;2.67;;;;;;;;;;5034059;28;20056;-61
2023/03/08 00:27:00;;;;;;;3.80;3.17;;;;;;;;;;5034223;28;20489;-60
2023/03/08 00:29:26;;;;;;;4.00;2.78;;;;;;;;;;5033738;28;20037;-60
2023/03/08 00:31:52;;;;;;;3.45;2.65;;;;;;;;;;5034538;28;20028;-61
2023/03/08 00:34:18;;;;;;;3.28;2.50;;;;;;;;;;5048405;28;20055;-61
2023/03/08 00:36:44;;;;;;;4.43;2.70;;;;;;;;;;5053861;28;20027;-60
2023/03/08 00:39:11;;;;;;;3.50;2.95;;;;;;;;;;5054147;28;20025;-61
2023/03/08 00:41:37;;;;;;;4.80;3.67;;;;;;;;;;5053630;28;20053;-60
2023/03/08 00:44:03;;;;;;;4.00;3.00;;;;;;;;;;5053950;28;20039;-60
2023/03/08 00:46:29;;;;;;;4.65;3.08;;;;;;;;;;5053689;28;20100;-60
2023/03/08 00:48:56;;;;;;;3.92;3.00;;;;;;;;;;5049470;28;20033;-60
2023/03/08 00:51:22;;;;;;;4.55;3.17;;;;;;;;;;5041264;28;20028;-60
2023/03/08 00:53:49;;;;;;;3.30;2.70;;;;;;;;;;5053612;28;20496;-61
2023/03/08 00:56:15;;;;;;;3.28;2.60;;;;;;;;;;5045058;28;20094;-60
2023/03/08 00:58:41;;;;;;;4.10;3.25;;;;;;;;;;5033494;28;20026;-60
2023/03/08 01:01:09;;;;;;;4.50;3.00;;;;;;;;;;5031776;28;20103;-61
2023/03/08 01:03:35;;;;;;;3.40;2.88;;;;;;;;;;5032541;28;20548;-60
2023/03/08 01:06:06;;;;;;;4.65;3.03;;;;;;;;;;5033038;28;20026;-61
2023/03/08 01:08:32;;;;;;;4.38;3.28;;;;;;;;;;5032999;28;20069;-60
2023/03/08 01:10:59;;;;;;;3.65;2.58;;;;;;;;;;5033145;28;20114;-60
2023/03/08 01:13:26;;;;;;;3.45;2.75;;;;;;;;;;5033105;28;20037;-60
2023/03/08 01:15:52;;;;;;;4.25;3.30;;;;;;;;;;5032746;28;20032;-60
2023/03/08 01:18:18;;;;;;;3.80;2.88;;;;;;;;;;5033312;28;20037;-60
2023/03/08 01:20:44;;;;;;;5.05;3.28;;;;;;;;;;5032257;28;20435;-60
2023/03/08 01:23:10;;;;;;;3.83;2.97;;;;;;;;;;5038602;28;20028;-60
2023/03/08 01:25:36;;;;;;;3.85;2.95;;;;;;;;;;5052793;28;20025;-61
2023/03/08 01:28:02;;;;;;;4.40;2.80;;;;;;;;;;5053168;28;20512;-60
2023/03/08 01:30:28;;;;;;;4.18;2.88;;;;;;;;;;5052056;28;20092;-60
2023/03/08 01:32:54;;;;;;;4.10;3.20;;;;;;;;;;5036977;28;20442;-61
2023/03/08 01:35:20;;;;;;;4.05;2.97;;;;;;;;;;5053189;28;20017;-61
2023/03/08 01:37:52;;;;;;;3.83;3.10;;;;;;;;;;5041835;28;20402;-60
2023/03/08 01:40:18;;;;;;;4.07;2.78;;;;;;;;;;5033005;28;20036;-60
2023/03/08 01:42:44;;;;;;;4.50;3.17;;;;;;;;;;5032764;28;20021;-60
2023/03/08 01:45:45;;;;;;;3.65;2.83;;;;;;;;;;5032917;28;20030;-61
2023/03/08 01:48:12;;;;;;;3.70;2.95;;;;;;;;;;5011058;28;20045;-61
2023/03/08 01:50:39;;;;;;;3.72;2.92;;;;;;;;;;5044447;28;20074;-61
2023/03/08 01:53:05;;;;;;;3.38;2.60;;;;;;;;;;5052774;28;20457;-60
2023/03/08 01:55:31;;;;;;;3.08;2.67;;;;;;;;;;5052290;28;20078;-60
2023/03/08 01:57:57;;;;;;;3.42;2.40;;;;;;;;;;5052691;28;20409;-60
2023/03/08 02:00:25;;;;;;;3.58;2.70;;;;;;;;;;5052989;28;20047;-59
2023/03/08 02:02:57;;;;;;;3.60;2.70;;;;;;;;;;5042604;28;20037;-60
2023/03/08 02:05:23;;;;;;;3.05;2.40;;;;;;;;;;5032316;28;20445;-60
2023/03/08 02:07:49;;;;;;;2.90;2.50;;;;;;;;;;5042072;28;20397;-60
2023/03/08 02:10:16;;;;;;;3.20;2.60;;;;;;;;;;5046139;28;20038;-60
2023/03/08 02:12:43;;;;;;;3.65;2.60;;;;;;;;;;5031285;28;20502;-60
2023/03/08 02:15:10;;;;;;;3.05;2.47;;;;;;;;;;5031969;28;20402;-60
2023/03/08 02:17:40;;;;;;;3.17;2.30;;;;;;;;;;5030131;28;20060;-60
2023/03/08 02:20:22;;;;;;;3.75;2.75;;;;;;;;;;5032219;28;20030;-60
2023/03/08 02:22:51;;;;;;;2.85;2.35;;;;;;;;;;5031623;28;20025;-60
2023/03/08 02:25:19;;;;;;;3.20;2.30;;;;;;;;;;5031826;28;20033;-60
2023/03/08 02:27:45;;;;;;;3.28;2.58;;;;;;;;;;5031546;28;20572;-60
2023/03/08 02:30:13;;;;;;;2.80;2.40;;;;;;;;;;5032082;28;20052;-61
2023/03/08 02:32:39;;;;;;;3.20;2.65;;;;;;;;;;5031382;28;20029;-60
2023/03/08 02:35:06;;;;;;;3.03;2.55;;;;;;;;;;5031468;28;20030;-61
2023/03/08 02:37:32;;;;;;;3.55;2.63;;;;;;;;;;5032834;28;20482;-60
2023/03/08 02:39:58;;;;;;;4.35;2.97;;;;;;;;;;5051695;28;20032;-60
2023/03/08 02:42:24;;;;;;;3.67;2.42;;;;;;;;;;5042928;28;20029;-60
2023/03/08 02:44:50;;;;;;;4.28;2.90;;;;;;;;;;5031996;28;20026;-60
2023/03/08 02:47:16;;;;;;;3.75;2.63;;;;;;;;;;5031217;28;20040;-59
2023/03/08 02:49:42;;;;;;;3.97;2.65;;;;;;;;;;5030711;28;20029;-60
2023/03/08 02:52:08;;;;;;;4.05;2.85;;;;;;;;;;5048864;28;20031;-60
2023/03/08 02:54:34;;;;;;;4.32;2.65;;;;;;;;;;5046781;28;20021;-60
2023/03/08 02:57:00;;;;;;;4.25;2.90;;;;;;;;;;5031311;28;20041;-60
2023/03/08 02:59:26;;;;;;;3.78;2.70;;;;;;;;;;5031003;28;20100;-60
2023/03/08 03:01:52;;;;;;;3.53;2.80;;;;;;;;;;5031235;28;20037;-60
2023/03/08 03:04:18;;;;;;;3.47;2.60;;;;;;;;;;5030961;28;20466;-60
2023/03/08 03:06:44;;;;;;;3.83;2.45;;;;;;;;;;5030476;28;20095;-60
2023/03/08 03:09:11;;;;;;;3.17;2.55;;;;;;;;;;5031302;28;20072;-60
2023/03/08 03:11:39;;;;;;;3.45;2.60;;;;;;;;;;5030738;28;20075;-60
2023/03/08 03:14:05;;;;;;;3.08;2.63;;;;;;;;;;5030902;28;20025;-59
2023/03/08 03:16:31;;;;;;;2.67;2.33;;;;;;;;;;5030660;28;20367;-59
2023/03/08 03:18:57;;;;;;;3.00;2.33;;;;;;;;;;5030833;28;20035;-59
2023/03/08 03:21:23;;;;;;;4.15;2.42;;;;;;;;;;5029801;28;20398;-59
2023/03/08 03:23:49;;;;;;;3.30;2.42;;;;;;;;;;5029798;28;20108;-59
2023/03/08 03:26:20;;;;;;;3.13;2.40;;;;;;;;;;5030885;28;20088;-59
2023/03/08 03:28:46;;;;;;;3.10;2.55;;;;;;;;;;5030823;28;20037;-60
2023/03/08 03:31:17;;;;;;;3.60;2.45;;;;;;;;;;5030795;28;20674;-59
2023/03/08 03:33:43;;;;;;;3.03;2.22;;;;;;;;;;5030307;28;20520;-59
2023/03/08 03:36:11;;;;;;;3.13;2.40;;;;;;;;;;5030870;28;20034;-59
2023/03/08 03:38:37;;;;;;;2.65;2.05;;;;;;;;;;5030795;28;20025;-59
2023/03/08 03:41:03;;;;;;;4.13;2.70;;;;;;;;;;5030953;28;20060;-61
2023/03/08 03:43:29;;;;;;;3.22;2.25;;;;;;;;;;5030183;28;20029;-60
2023/03/08 03:45:56;;;;;;;3.10;1.95;;;;;;;;;;5030880;28;20030;-61
2023/03/08 03:48:22;;;;;;;3.15;2.30;;;;;;;;;;5030892;28;20046;-58
2023/03/08 03:50:58;;;;;;;3.17;2.13;;;;;;;;;;5030458;28;20394;-60
2023/03/08 03:53:25;;;;;;;3.22;2.20;;;;;;;;;;5017352;28;20105;-61
2023/03/08 03:55:51;;;;;;;3.30;2.13;;;;;;;;;;5030869;28;20116;-60
2023/03/08 03:58:17;;;;;;;3.42;2.03;;;;;;;;;;5030777;28;20107;-61
2023/03/08 04:00:43;;;;;;;3.28;1.83;;;;;;;;;;5030195;28;20043;-61
2023/03/08 04:03:09;;;;;;;2.40;1.75;;;;;;;;;;5029873;28;20028;-61
2023/03/08 04:05:35;;;;;;;2.13;1.73;;;;;;;;;;5044551;28;20033;-61
2023/03/08 04:08:01;;;;;;;2.80;2.15;;;;;;;;;;5049347;28;20110;-61
2023/03/08 04:10:27;;;;;;;2.63;1.88;;;;;;;;;;5030136;28;20030;-61
2023/03/08 04:12:53;;;;;;;2.75;1.73;;;;;;;;;;5030900;28;20029;-61
2023/03/08 04:15:19;;;;;;;2.30;1.83;;;;;;;;;;5030650;28;20049;-61
2023/03/08 04:17:45;;;;;;;2.42;1.80;;;;;;;;;;5030686;28;20418;-61
2023/03/08 04:20:13;;;;;;;2.65;1.65;;;;;;;;;;5031851;28;20041;-61
2023/03/08 04:22:39;;;;;;;3.08;2.05;;;;;;;;;;5050119;28;20448;-61
2023/03/08 04:25:05;;;;;;;2.40;1.67;;;;;;;;;;5042322;28;20026;-61
2023/03/08 04:27:31;;;;;;;2.50;1.63;;;;;;;;;;5029969;28;20144;-61
2023/03/08 04:29:57;;;;;;;2.50;1.73;;;;;;;;;;5030518;28;20104;-61
2023/03/08 04:32:23;;;;;;;2.45;1.88;;;;;;;;;;5030419;28;20029;-62
2023/03/08 04:34:49;;;;;;;2.78;1.98;;;;;;;;;;5029968;28;20053;-61
2023/03/08 04:37:15;;;;;;;2.53;2.00;;;;;;;;;;5044359;28;20814;-61
2023/03/08 04:39:41;;;;;;;3.17;1.60;;;;;;;;;;5047655;28;20036;-61
2023/03/08 04:42:07;;;;;;;2.38;1.60;;;;;;;;;;5033573;28;20519;-61
2023/03/08 04:44:33;;;;;;;2.53;1.85;;;;;;;;;;5033780;28;20025;-60
2023/03/08 04:46:59;;;;;;;2.72;1.73;;;;;;;;;;5033560;28;20038;-61
2023/03/08 04:49:25;;;;;;;3.38;1.80;;;;;;;;;;5033561;28;20125;-61
2023/03/08 04:51:51;;;;;;;2.40;1.67;;;;;;;;;;5033179;28;20120;-61
2023/03/08 04:54:17;;;;;;;2.15;1.35;;;;;;;;;;5033632;28;20116;-61
2023/03/08 04:56:43;;;;;;;2.30;1.80;;;;;;;;;;5033409;28;20048;-61
2023/03/08 04:59:09;;;;;;;3.28;2.10;;;;;;;;;;5033306;28;20465;-61
2023/03/08 05:01:35;;;;;;;2.90;1.83;;;;;;;;;;5033025;28;20037;-61
2023/03/08 05:04:01;;;;;;;2.30;1.55;;;;;;;;;;5033162;28;20497;-61
2023/03/08 05:06:27;;;;;;;1.90;1.52;;;;;;;;;;5034640;28;20537;-61
2023/03/08 05:08:54;;;;;;;2.47;1.67;;;;;;;;;;5053589;28;20144;-61
2023/03/08 05:11:21;;;;;;;2.60;1.70;;;;;;;;;;5050148;28;20030;-61
2023/03/08 05:13:48;;;;;;;2.80;1.80;;;;;;;;;;5033063;28;20116;-61
2023/03/08 05:16:14;;;;;;;2.67;1.80;;;;;;;;;;5033089;28;20025;-61
2023/03/08 05:18:40;;;;;;;2.55;1.58;;;;;;;;;;5032825;28;20033;-61
2023/03/08 05:21:09;;;;;;;2.13;1.30;;;;;;;;;;5033135;28;20482;-61
2023/03/08 05:23:35;;;;;;;2.53;1.50;;;;;;;;;;5031694;28;20036;-61
2023/03/08 05:26:02;;;;;;;3.00;1.60;;;;;;;;;;5032843;28;20026;-61
2023/03/08 05:28:29;;;;;;;2.55;1.50;;;;;;;;;;5032560;28;20037;-61
2023/03/08 05:31:14;;;;;;;3.67;1.85;;;;;;;;;;5033134;28;20021;-61
2023/03/08 05:33:40;;;;;;;2.20;1.60;;;;;;;;;;5033606;28;20035;-61
2023/03/08 05:36:07;;;;;;;2.05;1.40;;;;;;;;;;5052732;28;20025;-60
2023/03/08 05:38:33;;;;;;;2.63;1.95;;;;;;;;;;5034209;28;20083;-61
2023/03/08 05:41:00;;;;;;;3.33;1.08;;;;;;;;;;5032553;28;20033;-61
2023/03/08 05:43:26;;;;;;;2.03;1.50;;;;;;;;;;5033130;28;20056;-62
2023/03/08 05:45:56;;;;;;;1.90;1.30;;;;;;;;;;5032898;28;20455;-62
2023/03/08 05:48:22;;;;;;;2.00;1.45;;;;;;;;;;5031744;28;20041;-61
2023/03/08 05:50:48;;;;;;;2.17;1.50;;;;;;;;;;5032366;28;20022;-61
2023/03/08 05:53:14;;;;;;;2.15;1.48;;;;;;;;;;5032572;28;20110;-61
2023/03/08 05:55:40;;;;;;;2.35;1.52;;;;;;;;;;5032782;28;20525;-61
2023/03/08 05:58:06;;;;;;;3.53;1.88;;;;;;;;;;5032517;28;20132;-61
2023/03/08 06:00:32;;;;;;;2.30;1.38;;;;;;;;;;5032292;28;20115;-61
2023/03/08 06:02:59;;;;;;;2.70;1.58;;;;;;;;;;5032927;28;20040;-61
2023/03/08 06:05:25;;;;;;;2.53;1.40;;;;;;;;;;5031949;28;20041;-61
2023/03/08 06:07:51;;;;;;;2.45;1.45;;;;;;;;;;5045642;28;20042;-61
2023/03/08 06:10:17;;;;;;;1.73;1.40;;;;;;;;;;5052073;28;20048;-61
2023/03/08 06:12:43;;;;;;;2.28;1.67;;;;;;;;;;5040436;28;20033;-61
2023/03/08 06:15:09;;;;;;;2.70;1.60;;;;;;;;;;5032045;28;20032;-61
2023/03/08 06:17:35;;;;;;;2.55;1.60;;;;;;;;;;5031891;28;20508;-61
2023/03/08 06:20:01;;;;;;;1.85;1.30;;;;;;;;;;5031980;28;20026;-60
2023/03/08 06:22:27;;;;;;;5.03;1.63;;;;;;;;;;5031519;28;20029;-61
2023/03/08 06:24:53;;;;;;;2.28;1.55;;;;;;;;;;5031999;28;20033;-61
2023/03/08 06:27:19;;;;;;;2.05;1.42;;;;;;;;;;5031517;28;20080;-61
2023/03/08 06:29:47;;;;;;;1.90;1.45;;;;;;;;;;5032219;28;20053;-61
2023/03/08 06:32:13;;;;;;;2.05;1.20;;;;;;;;;;5031003;28;20128;-61
2023/03/08 06:34:39;;;;;;;2.67;1.77;;;;;;;;;;5031165;28;20030;-61
2023/03/08 06:37:05;;;;;;;2.20;1.15;;;;;;;;;;5036026;28;20025;-61
2023/03/08 06:39:31;;;;;;;2.88;1.50;;;;;;;;;;5050498;28;20029;-60
2023/03/08 06:41:57;;;;;;;1.52;1.10;;;;;;;;;;5045635;28;20021;-61
2023/03/08 06:44:23;;;;;;;1.55;1.15;;;;;;;;;;5031121;28;20401;-61
2023/03/08 06:46:49;;;;;;;1.92;1.30;;;;;;;;;;5031820;28;20024;-62
2023/03/08 06:49:15;;;;;;;2.38;1.52;;;;;;;;;;5030313;28;20048;-61
2023/03/08 06:51:41;;;;;;;2.17;1.15;;;;;;;;;;5031822;28;20036;-61
2023/03/08 06:54:07;;;;;;;6.70;1.33;;;;;;;;;;5031661;28;20437;-60
2023/03/08 06:56:33;;;;;;;1.85;1.23;;;;;;;;;;5031450;28;20029;-61
2023/03/08 06:58:59;;;;;;;2.17;1.45;;;;;;;;;;5031829;28;20022;-62
2023/03/08 07:01:25;;;;;;;4.05;1.15;;;;;;;;;;5031238;28;20044;-61
2023/03/08 07:03:52;;;;;;;2.03;1.20;;;;;;;;;;5031644;28;20104;-61
2023/03/08 07:06:18;;;;;;;2.88;1.33;;;;;;;;;;5031140;28;20059;-61
2023/03/08 07:08:44;;;;;;;1.48;1.15;;;;;;;;;;5029845;28;20106;-61
2023/03/08 07:11:10;;;;;;;3.88;1.35;;;;;;;;;;5030128;28;20052;-61
2023/03/08 07:13:37;;;;;;;2.67;1.25;;;;;;;;;;5030720;28;20044;-61
2023/03/08 07:16:07;;;;;;;2.15;1.17;;;;;;;;;;5050874;28;20024;-61
2023/03/08 07:18:33;;;;;;;4.82;1.33;;;;;;;;;;5050871;28;20040;-61
2023/03/08 07:20:59;;;;;;;3.83;1.45;;;;;;;;;;5051219;28;20504;-61
2023/03/08 07:23:25;;;;;;;4.07;1.15;;;;;;;;;;5041492;28;20026;-61
2023/03/08 07:25:51;;;;;;;4.15;1.33;;;;;;;;;;5030094;28;20025;-61
2023/03/08 07:28:17;;;;;;;2.47;1.75;;;;;;;;;;5034573;28;20090;-61
2023/03/08 07:30:50;;;;;;;3.78;1.40;;;;;;;;;;5045223;28;20025;-61
2023/03/08 07:33:16;;;;;;;2.30;1.67;;;;;;;;;;5030199;28;20102;-61
2023/03/08 07:35:42;;;;;;;2.47;1.80;;;;;;;;;;5051111;28;20100;-61
2023/03/08 07:38:08;;;;;;;2.75;1.60;;;;;;;;;;5034555;28;20504;-61
2023/03/08 07:40:34;;;;;;;3.58;2.38;;;;;;;;;;5030175;28;20112;-61
2023/03/08 07:43:00;;;;;;;2.15;1.77;;;;;;;;;;5031167;28;20060;-61
2023/03/08 07:45:26;;;;;;;5.85;2.08;;;;;;;;;;5030688;28;20040;-61
2023/03/08 07:47:52;;;;;;;2.80;1.70;;;;;;;;;;5030909;28;20546;-61
2023/03/08 07:50:19;;;;;;;3.55;2.50;;;;;;;;;;5030869;28;20022;-60
2023/03/08 07:52:45;;;;;;;3.17;2.08;;;;;;;;;;5029487;28;20029;-61
2023/03/08 07:55:11;;;;;;;4.18;1.67;;;;;;;;;;5030488;28;20033;-61
2023/03/08 07:57:37;;;;;;;4.80;1.92;;;;;;;;;;5030404;28;20029;-61
2023/03/08 08:00:07;;;;;;;3.00;2.03;;;;;;;;;;5031174;28;20033;-61
2023/03/08 08:02:33;;;;;;;2.47;1.83;;;;;;;;;;5030986;28;20032;-61
2023/03/08 08:05:00;;;;;;;3.65;2.05;;;;;;;;;;5030901;28;20100;-61
2023/03/08 08:07:26;;;;;;;3.22;2.22;;;;;;;;;;5030622;28;20034;-61
2023/03/08 08:09:52;;;;;;;5.28;1.80;;;;;;;;;;5030331;28;20041;-60
2023/03/08 08:12:18;;;;;;;5.43;2.00;;;;;;;;;;5034334;28;20091;-61
2023/03/08 08:14:44;;;;;;;3.10;1.77;;;;;;;;;;5034586;28;20025;-61
2023/03/08 08:17:10;;;;;;;6.85;2.30;;;;;;;;;;5034549;28;20033;-60
2023/03/08 08:19:37;;;;;;;2.85;1.90;;;;;;;;;;5033511;28;20498;-60
2023/03/08 08:22:03;;;;;;;7.60;2.67;;;;;;;;;;5042242;28;20072;-61
2023/03/08 08:24:29;;;;;;;4.70;2.30;;;;;;;;;;5036618;28;20021;-60
2023/03/08 08:26:56;;;;;;;7.13;2.22;;;;;;;;;;5054430;28;20064;-60
2023/03/08 08:29:22;;;;;;;5.18;2.13;;;;;;;;;;5054125;28;20481;-61
2023/03/08 08:31:51;;;;;;;7.38;2.65;;;;;;;;;;5037546;28;20381;-60
2023/03/08 08:34:17;;;;;;;6.32;2.50;;;;;;;;;;5034236;28;20044;-60
2023/03/08 08:36:43;;;;;;;5.85;2.45;;;;;;;;;;5034353;28;20026;-60
2023/03/08 08:39:09;;;;;;;4.25;2.50;;;;;;;;;;5034065;28;20080;-61
2023/03/08 08:41:35;;;;;;;3.75;2.42;;;;;;;;;;5034228;28;20034;-60
2023/03/08 08:44:01;;;;;;;7.88;2.45;;;;;;;;;;5033496;28;20038;-59
2023/03/08 08:46:27;;;;;;;4.70;2.53;;;;;;;;;;5034322;28;20029;-62
2023/03/08 08:48:54;;;;;;;8.45;2.20;;;;;;;;;;5034190;28;20135;-61
2023/03/08 08:51:21;;;;;;;8.35;2.05;;;;;;;;;;5033695;28;20017;-61
2023/03/08 08:53:47;;;;;;;3.53;2.15;;;;;;;;;;5033748;28;20035;-58
2023/03/08 08:56:17;;;;;;;3.90;2.30;;;;;;;;;;5033938;28;20104;-60
2023/03/08 08:58:45;;;;;;;4.05;2.28;;;;;;;;;;5033525;28;20071;-58
2023/03/08 09:01:15;;;;;;;3.80;2.00;;;;;;;;;;5033661;28;20432;-58
2023/03/08 09:03:41;;;;;;;2.97;2.25;;;;;;;;;;5033457;28;20033;-57
2023/03/08 09:06:07;;;;;;;6.50;2.40;;;;;;;;;;5033803;28;20500;-60
2023/03/08 09:08:33;;;;;;;2.97;2.08;;;;;;;;;;5030109;28;20172;-61
2023/03/08 09:11:03;;;;;;;4.90;1.90;;;;;;;;;;5030073;28;20105;-58
2023/03/08 09:13:29;;;;;;;4.43;2.00;;;;;;;;;;5033579;28;20041;-60
2023/03/08 09:15:55;;;;;;;4.15;2.10;;;;;;;;;;5033649;28;20478;-59
2023/03/08 09:18:21;;;;;;;2.63;1.90;;;;;;;;;;5033365;28;20037;-58
2023/03/08 09:20:47;;;;;;;2.42;1.67;;;;;;;;;;5032844;28;20026;-57
2023/03/08 09:23:13;;;;;;;3.72;1.60;;;;;;;;;;5032281;28;20525;-58
2023/03/08 09:25:39;;;;;;;4.30;1.67;;;;;;;;;;5033123;28;20022;-58
2023/03/08 09:28:05;;;;;;;3.63;1.77;;;;;;;;;;5033110;28;20485;-59
2023/03/08 09:30:31;;;;;;;3.30;1.80;;;;;;;;;;5032575;28;20030;-60
2023/03/08 09:32:58;;;;;;;6.80;1.90;;;;;;;;;;5033361;28;20091;-60
2023/03/08 09:35:24;;;;;;;4.78;1.52;;;;;;;;;;5031864;28;20025;-58
2023/03/08 09:37:50;;;;;;;2.67;1.65;;;;;;;;;;5040518;28;20021;-59
2023/03/08 09:40:20;;;;;;;2.65;1.70;;;;;;;;;;5036260;28;20501;-58
2023/03/08 09:42:47;;;;;;;2.63;1.50;;;;;;;;;;5031460;28;20096;-60
2023/03/08 09:45:17;;;;;;;2.60;1.13;;;;;;;;;;5032880;28;20112;-59
2023/03/08 09:47:46;;;;;;;3.35;1.58;;;;;;;;;;5033284;28;20025;-58
2023/03/08 09:50:12;;;;;;;3.03;1.55;;;;;;;;;;5032932;28;20454;-58
2023/03/08 09:52:47;;;;;;;3.85;1.20;;;;;;;;;;5032998;28;20108;-58
2023/03/08 09:55:18;;;;;;;1.90;1.30;;;;;;;;;;5032242;28;20560;-60
2023/03/08 09:57:48;;;;;;;2.50;1.33;;;;;;;;;;5032844;28;20029;-58
2023/03/08 10:00:22;;;;;;;3.70;1.50;;;;;;;;;;5032113;28;20030;-60
2023/03/08 10:03:06;;;;;;;2.17;1.35;;;;;;;;;;5029350;28;20025;-60
2023/03/08 10:06:05;;;;;;;2.85;1.23;;;;;;;;;;5032146;28;20025;-60
2023/03/08 10:08:51;;;;;;;2.95;1.40;;;;;;;;;;5031136;28;20501;-60
2023/03/08 10:11:19;;;;;;;3.08;1.17;;;;;;;;;;5031255;28;20121;-60
2023/03/08 10:13:56;;;;;;;2.80;1.38;;;;;;;;;;5032556;28;20100;-61
2023/03/08 10:16:22;;;;;;;1.95;1.27;;;;;;;;;;5031692;28;20029;-60
2023/03/08 10:19:08;;;;;;;4.78;1.40;;;;;;;;;;5032457;28;20075;-61
2023/03/08 10:21:37;;;;;;;2.35;1.10;;;;;;;;;;5030863;28;20092;-60
2023/03/08 10:24:15;;;;;;;2.47;1.35;;;;;;;;;;5031759;28;20116;-60
2023/03/08 10:26:42;;;;;;;3.35;1.10;;;;;;;;;;5032499;28;20025;-60
2023/03/08 10:29:12;;;;;;;1.63;1.08;;;;;;;;;;5032628;28;20107;-61
2023/03/08 10:31:38;;;;;;;2.08;0.95;;;;;;;;;;5032254;28;20033;-60
2023/03/08 10:34:13;;;;;;;3.70;1.17;;;;;;;;;;5030982;28;20049;-60
2023/03/08 10:36:46;;;;;;;2.13;1.35;;;;;;;;;;5031891;28;20025;-60
2023/03/08 10:39:15;;;;;;;7.55;1.13;;;;;;;;;;5042397;28;20090;-60
2023/03/08 10:41:43;;;;;;;1.73;1.20;;;;;;;;;;5052126;28;20104;-60
2023/03/08 10:44:35;;;;;;;1.77;1.20;;;;;;;;;;5034508;28;20025;-62
2023/03/08 10:47:03;;;;;;;3.13;1.10;;;;;;;;;;5030640;28;20472;-61
2023/03/08 10:49:29;;;;;;;2.00;1.30;;;;;;;;;;5031407;28;20544;-61
2023/03/08 10:51:59;;;;;;;1.73;0.98;;;;;;;;;;5031891;28;20092;-61
2023/03/08 10:54:26;;;;;;;1.63;0.77;;;;;;;;;;5031606;28;20037;-61
2023/03/08 10:56:56;;;;;;;2.20;1.10;;;;;;;;;;5031219;28;20029;-61
2023/03/08 10:59:27;;;;;;;3.40;1.13;;;;;;;;;;5031421;28;20112;-62
2023/03/08 11:01:54;;;;;;;2.45;1.05;;;;;;;;;;5034065;28;20452;-62
2023/03/08 11:04:21;;;;;;;1.92;1.20;;;;;;;;;;5051107;28;20029;-62
2023/03/08 11:06:47;;;;;;;4.72;1.10;;;;;;;;;;5041117;28;20030;-62
2023/03/08 11:09:19;;;;;;;2.15;1.08;;;;;;;;;;5031255;28;20045;-61
2023/03/08 11:11:45;;;;;;;1.90;1.30;;;;;;;;;;5031112;28;20047;-61
2023/03/08 11:14:11;;;;;;;1.65;1.00;;;;;;;;;;5031821;28;20083;-62
2023/03/08 11:16:56;;;;;;;2.28;1.58;;;;;;;;;;5031202;28;20025;-63
2023/03/08 11:19:22;;;;;;;1.65;0.80;;;;;;;;;;5030916;28;20477;-62
2023/03/08 11:21:48;;;;;;;1.60;1.10;;;;;;;;;;5031291;28;20036;-62
2023/03/08 11:24:28;;;;;;;1.48;0.98;;;;;;;;;;5031222;28;20026;-62
2023/03/08 11:27:03;;;;;;;1.70;0.98;;;;;;;;;;5030761;28;20100;-60
2023/03/08 11:29:55;;;;;;;1.73;0.67;;;;;;;;;;5031033;28;20056;-63
2023/03/08 11:32:46;;;;;;;1.23;0.88;;;;;;;;;;5030371;28;20320;-60
2023/03/08 11:35:18;;;;;;;2.72;1.20;;;;;;;;;;5031656;28;20026;-62
2023/03/08 11:37:50;;;;;;;1.35;0.90;;;;;;;;;;5031228;28;20026;-61
2023/03/08 11:40:24;;;;;;;2.97;1.00;;;;;;;;;;5030848;28;20026;-61
2023/03/08 11:42:55;;;;;;;3.28;0.82;;;;;;;;;;5030409;28;20025;-62
2023/03/08 11:45:27;;;;;;;1.60;0.90;;;;;;;;;;5030016;28;20087;-63
2023/03/08 11:47:59;;;;;;;2.60;1.05;;;;;;;;;;5030405;28;20076;-63
2023/03/08 11:50:33;;;;;;;4.63;1.00;;;;;;;;;;5030731;28;20108;-63
2023/03/08 11:53:05;;;;;;;2.35;0.90;;;;;;;;;;5030853;28;20025;-63
2023/03/08 11:55:37;;;;;;;4.95;1.10;;;;;;;;;;5030660;28;20052;-62
2023/03/08 11:58:09;;;;;;;3.45;1.00;;;;;;;;;;5030846;28;20032;-61
2023/03/08 12:00:40;;;;;;;4.40;1.20;;;;;;;;;;5030605;28;20064;-63
2023/03/08 12:03:12;;;;;;;2.70;1.15;;;;;;;;;;5030238;28;20029;-61
2023/03/08 12:05:40;;;;;;;5.15;1.00;;;;;;;;;;5030146;28;20406;-61
2023/03/08 12:08:13;;;;;;;4.50;1.02;;;;;;;;;;5030114;28;20037;-61
2023/03/08 12:10:48;;;;;;;4.05;1.27;;;;;;;;;;5030404;28;20034;-61
2023/03/08 12:13:23;;;;;;;4.90;1.52;;;;;;;;;;5049014;28;20104;-60
2023/03/08 12:16:12;;;;;;;7.68;1.55;;;;;;;;;;5029940;28;20561;-62
2023/03/08 12:18:41;;;;;;;4.88;1.17;;;;;;;;;;5029213;28;20520;-61
2023/03/08 12:21:26;;;;;;;5.80;1.35;;;;;;;;;;5028582;28;20389;-61
2023/03/08 12:24:10;;;;;;;4.63;1.02;;;;;;;;;;5029104;28;20033;-61
2023/03/08 12:26:44;;;;;;;2.92;1.15;;;;;;;;;;5028644;28;20375;-61
2023/03/08 12:29:20;;;;;;;2.38;1.20;;;;;;;;;;5029459;28;20080;-60
2023/03/08 12:31:47;;;;;;;3.53;1.10;;;;;;;;;;5029944;28;20072;-60
2023/03/08 12:34:33;;;;;;;3.55;1.00;;;;;;;;;;5030349;28;20293;-62
2023/03/08 12:36:59;;;;;;;3.75;1.15;;;;;;;;;;5031308;28;20041;-61
2023/03/08 12:39:27;;;;;;;5.15;0.98;;;;;;;;;;5050098;28;20048;-60
2023/03/08 12:41:57;;;;;;;3.35;1.20;;;;;;;;;;5032147;28;20517;-60
2023/03/08 12:44:25;;;;;;;4.15;1.00;;;;;;;;;;5028982;28;20037;-61
2023/03/08 12:46:55;;;;;;;3.42;1.20;;;;;;;;;;5048746;28;20025;-61
2023/03/08 12:49:26;;;;;;;3.45;1.00;;;;;;;;;;5044085;28;20045;-61
2023/03/08 12:51:57;;;;;;;2.63;1.00;;;;;;;;;;5030179;28;20025;-60
2023/03/08 12:54:23;;;;;;;4.85;0.90;;;;;;;;;;5030193;28;20052;-61
2023/03/08 12:56:54;;;;;;;2.80;0.80;;;;;;;;;;5031644;28;20080;-61
2023/03/08 12:59:19;;;;;;;3.47;1.00;;;;;;;;;;5033427;28;20037;-62
2023/03/08 13:01:54;;;;;;;2.65;1.00;;;;;;;;;;5033038;28;20433;-60
2023/03/08 13:04:26;;;;;;;5.30;1.67;;;;;;;;;;5048247;28;20063;-60
2023/03/08 13:06:59;;;;;;;2.95;0.95;;;;;;;;;;5037332;28;20017;-59
2023/03/08 13:09:25;;;;;;;3.17;1.00;;;;;;;;;;5053247;28;20516;-61
2023/03/08 13:11:57;;;;;;;2.70;1.00;;;;;;;;;;5053508;28;20051;-62
2023/03/08 13:14:25;;;;;;;3.38;1.10;;;;;;;;;;5042892;28;20030;-60
2023/03/08 13:16:51;;;;;;;3.05;0.90;;;;;;;;;;5033406;28;20029;-60
2023/03/08 13:19:17;;;;;;;4.18;0.90;;;;;;;;;;5038835;28;20033;-62
2023/03/08 13:22:10;;;;;;;1.95;0.90;;;;;;;;;;5053766;28;20159;-62
2023/03/08 13:24:56;;;;;;;1.95;1.00;;;;;;;;;;5051775;28;20087;-61
2023/03/08 13:27:27;;;;;;;1.70;0.70;;;;;;;;;;5053036;28;20032;-63
2023/03/08 13:29:53;;;;;;;3.63;1.23;;;;;;;;;;5053329;28;20025;-62
2023/03/08 13:32:20;;;;;;;2.60;1.10;;;;;;;;;;5051922;28;20053;-62
2023/03/08 13:35:00;;;;;;;3.33;1.00;;;;;;;;;;5032069;28;20025;-59
2023/03/08 13:37:27;;;;;;;2.20;1.00;;;;;;;;;;5032452;28;20057;-60
2023/03/08 13:39:54;;;;;;;2.40;0.85;;;;;;;;;;5033402;28;20053;-61
2023/03/08 13:42:23;;;;;;;2.22;0.90;;;;;;;;;;5033050;28;20033;-62
2023/03/08 13:44:50;;;;;;;2.00;0.85;;;;;;;;;;5032983;28;20022;-62
2023/03/08 13:47:24;;;;;;;1.98;0.93;;;;;;;;;;5032185;28;20033;-60
2023/03/08 13:49:51;;;;;;;3.28;0.80;;;;;;;;;;5032963;28;20072;-60
2023/03/08 13:52:21;;;;;;;2.67;0.80;;;;;;;;;;5032760;28;20048;-60
2023/03/08 13:54:59;;;;;;;2.75;1.13;;;;;;;;;;5033021;28;20485;-61
2023/03/08 13:57:26;;;;;;;2.13;0.90;;;;;;;;;;5032360;28;20444;-62
2023/03/08 13:59:54;;;;;;;2.42;1.10;;;;;;;;;;5032689;28;20025;-62
2023/03/08 14:02:21;;;;;;;3.17;1.02;;;;;;;;;;5032248;28;20033;-61
2023/03/08 14:04:47;;;;;;;1.80;0.88;;;;;;;;;;5032720;28;20363;-62
2023/03/08 14:07:19;;;;;;;1.27;0.70;;;;;;;;;;5031868;28;20092;-63
2023/03/08 14:09:45;;;;;;;2.25;0.90;;;;;;;;;;5032086;28;20124;-62
2023/03/08 14:12:14;;;;;;;1.70;0.90;;;;;;;;;;5032036;28;20140;-62
2023/03/08 14:14:43;;;;;;;3.10;1.13;;;;;;;;;;5040565;28;20033;-61
2023/03/08 14:17:17;;;;;;;2.30;0.88;;;;;;;;;;5043842;28;20018;-60
2023/03/08 14:19:43;;;;;;;1.50;0.80;;;;;;;;;;5042001;28;20044;-60
2023/03/08 14:22:09;;;;;;;2.25;1.00;;;;;;;;;;5052825;28;20567;-61
2023/03/08 14:24:36;;;;;;;1.52;0.80;;;;;;;;;;5052148;28;20025;-60
2023/03/08 14:27:03;;;;;;;2.15;0.95;;;;;;;;;;5052232;28;20033;-60
2023/03/08 14:29:31;;;;;;;1.38;0.80;;;;;;;;;;5043091;28;20037;-61
2023/03/08 14:32:06;;;;;;;2.03;1.00;;;;;;;;;;5031486;28;20071;-61
2023/03/08 14:34:35;;;;;;;2.45;0.77;;;;;;;;;;5044242;28;20094;-60
2023/03/08 14:37:03;;;;;;;1.90;1.05;;;;;;;;;;5051358;28;20381;-62
2023/03/08 14:39:30;;;;;;;2.55;1.30;;;;;;;;;;5031309;28;20037;-61
2023/03/08 14:41:56;;;;;;;2.60;0.93;;;;;;;;;;5031658;28;20035;-61
2023/03/08 14:44:24;;;;;;;2.30;0.95;;;;;;;;;;5030847;28;20099;-61
2023/03/08 14:46:57;;;;;;;2.85;1.05;;;;;;;;;;5031989;28;20017;-60
2023/03/08 14:49:23;;;;;;;2.78;1.33;;;;;;;;;;5031818;28;20033;-60